Atlantic Island — C4VM2 — position and weather

sailwx.info

Track history (hours):
 
Tides and Currents Weather Stations Pressure Air Temp Water Temp Dewpoint Dewpoint Depression Visibility Wind Speed Wind Dir Waves Ship Positions

Atlantic Island

Last reported at 2015-Mar-27 22:31 UTC. Time now 2015-Mar-28 00:31 UTC.
Position N 39°31' W 000°08'.

Length 95 m; draft 5.8 m.

Type: Cargo ship. MMSI: 210754000.

Date/timePositionNaut miles runAvg speedWind from/ knotsBaromVisibWave heightAir tempDewpointWater temp
2015-Mar-27 22:31N 39°31' W 000°08'9 0.6
2015-Mar-27 07:26N 39°39' W 000°13'  
2015-Mar-22 08:18N 39°37' W 000°10'49 9.8
2015-Mar-22 03:19N 40°08' E 000°38'810.3
2015-Mar-22 02:33N 40°13' E 000°46'1010.4
2015-Mar-22 01:33N 40°20' E 000°57'1010.5
2015-Mar-22 00:33N 40°27' E 001°07'1010.3
2015-Mar-21 23:34N 40°33' E 001°17'1010.2
2015-Mar-21 22:33N 40°40' E 001°28'1010.3
2015-Mar-21 21:34N 40°48' E 001°37'1010.2
2015-Mar-21 20:32N 40°55' E 001°46'1210.6
2015-Mar-21 19:24N 41°05' E 001°56'1910.2
2015-Mar-21 17:31N 41°21' E 002°10'4 0.1
2015-Mar-20 08:25N 41°17' E 002°11'2 1.6
2015-Mar-20 07:05N 41°15' E 002°10'2 2.9
2015-Mar-20 06:22N 41°14' E 002°08'2 0.9
2015-Mar-20 04:27N 41°12' E 002°07'6 5.7
2015-Mar-20 03:29N 41°07' E 002°04'7 7.1
2015-Mar-20 02:28N 41°01' E 002°01'7 7.3
2015-Mar-20 01:33N 40°55' E 001°56'7 7.2
2015-Mar-20 00:32N 40°48' E 001°52'7 7.0
2015-Mar-19 23:33N 40°42' E 001°47'7 7.1
2015-Mar-19 22:33N 40°36' E 001°43'7 7.0
2015-Mar-19 21:33N 40°30' E 001°39'7 6.8
2015-Mar-19 20:33N 40°24' E 001°35'6 6.2
2015-Mar-19 19:33N 40°18' E 001°32'6 5.5
2015-Mar-19 18:33N 40°13' E 001°28'6 5.6
2015-Mar-19 17:33N 40°09' E 001°24'6 6.0
2015-Mar-19 16:33N 40°03' E 001°21'6 6.5
2015-Mar-19 15:33N 39°57' E 001°18'6 6.1
2015-Mar-19 14:33N 39°52' E 001°14'7 6.5
2015-Mar-19 13:33N 39°46' E 001°10'129 7.5
2015-Mar-18 20:19N 37°54' W 000°12'6 7.7
2015-Mar-18 19:31N 37°49' W 000°17'7 7.7
2015-Mar-18 18:33N 37°43' W 000°22'8 7.6
2015-Mar-18 17:33N 37°37' W 000°27'7 7.2
2015-Mar-18 16:33N 37°32' W 000°33'7 7.2
2015-Mar-18 15:33N 37°31' W 000°42'7 7.3
2015-Mar-18 14:33N 37°31' W 000°52'7 6.5
2015-Mar-18 13:33N 37°34' W 000°59'  
Track history (hours):
 
Tides and Currents Weather Stations Pressure Air Temp Water Temp Dewpoint Dewpoint Depression Visibility Wind Speed Wind Dir Waves Ship Positions

Atlantic Island

Last reported at 2015-Mar-27 22:31 UTC. Time now 2015-Mar-28 00:31 UTC.
Position N 39°31' W 000°08'.

Length 95 m; draft 5.8 m.

Type: Cargo ship. MMSI: 210754000.

Date/timePositionNaut miles runAvg speedWind from/ knotsBaromVisibWave heightAir tempDewpointWater temp
2015-Mar-27 22:31N 39°31' W 000°08'9 0.6
2015-Mar-27 07:26N 39°39' W 000°13'  
2015-Mar-22 08:18N 39°37' W 000°10'49 9.8
2015-Mar-22 03:19N 40°08' E 000°38'810.3
2015-Mar-22 02:33N 40°13' E 000°46'1010.4
2015-Mar-22 01:33N 40°20' E 000°57'1010.5
2015-Mar-22 00:33N 40°27' E 001°07'1010.3
2015-Mar-21 23:34N 40°33' E 001°17'1010.2
2015-Mar-21 22:33N 40°40' E 001°28'1010.3
2015-Mar-21 21:34N 40°48' E 001°37'1010.2
2015-Mar-21 20:32N 40°55' E 001°46'1210.6
2015-Mar-21 19:24N 41°05' E 001°56'1910.2
2015-Mar-21 17:31N 41°21' E 002°10'4 0.1
2015-Mar-20 08:25N 41°17' E 002°11'2 1.6
2015-Mar-20 07:05N 41°15' E 002°10'2 2.9
2015-Mar-20 06:22N 41°14' E 002°08'2 0.9
2015-Mar-20 04:27N 41°12' E 002°07'6 5.7
2015-Mar-20 03:29N 41°07' E 002°04'7 7.1
2015-Mar-20 02:28N 41°01' E 002°01'7 7.3
2015-Mar-20 01:33N 40°55' E 001°56'7 7.2
2015-Mar-20 00:32N 40°48' E 001°52'7 7.0
2015-Mar-19 23:33N 40°42' E 001°47'7 7.1
2015-Mar-19 22:33N 40°36' E 001°43'7 7.0
2015-Mar-19 21:33N 40°30' E 001°39'7 6.8
2015-Mar-19 20:33N 40°24' E 001°35'6 6.2
2015-Mar-19 19:33N 40°18' E 001°32'6 5.5
2015-Mar-19 18:33N 40°13' E 001°28'6 5.6
2015-Mar-19 17:33N 40°09' E 001°24'6 6.0
2015-Mar-19 16:33N 40°03' E 001°21'6 6.5
2015-Mar-19 15:33N 39°57' E 001°18'6 6.1
2015-Mar-19 14:33N 39°52' E 001°14'7 6.5
2015-Mar-19 13:33N 39°46' E 001°10'129 7.5
2015-Mar-18 20:19N 37°54' W 000°12'6 7.7
2015-Mar-18 19:31N 37°49' W 000°17'7 7.7
2015-Mar-18 18:33N 37°43' W 000°22'8 7.6
2015-Mar-18 17:33N 37°37' W 000°27'7 7.2
2015-Mar-18 16:33N 37°32' W 000°33'7 7.2
2015-Mar-18 15:33N 37°31' W 000°42'7 7.3
2015-Mar-18 14:33N 37°31' W 000°52'7 6.5
2015-Mar-18 13:33N 37°34' W 000°59'  

Dump ship's entire track history